LBSF Airport Information

Runway Information
Runway 09 Length 11811 ft width 147 ft
Elevation 1739 ft Threshold ft Heading 95
Runway 27 Length 11811 ft Width 147 ft
Elevation 1744 ft Threshold ft Heading 275
Airport Frequencies
Type APP Name APP Frequency 123.7 MHZ
Type ATIS Name ATIS Frequency 124.05 MHZ
Type TWR Name TWR Frequency 118.1 MHZ
Airport Navaids
Type NDB Name Bozhourishte Frequency 312 KHZ
Type NDB Name Sofia Frequency 375 KHZ
Type NDB Name Sofia Frequency 335 KHZ
Type NDB Name Sofia Frequency 529 KHZ
Type VOR-DME Name Sofia Frequency 112600 KHZ
Type NDB Name Sofia Frequency 350 KHZ
Airport Weather Information & NOTAM
ADDS - METARS form results

(0635 UTC 30 June 2022)
Data provider http://aviationweather.gov/metar/data/
 
METAR text: LBSF 300630Z VRB02KT CAVOK 22/15 Q1017 NOSIG
Conditions at: LBSF (SOFIA , BG) observed 0630 UTC 30 June 2022
Temperature: 22.0°C (72°F)
Dewpoint: 15.0°C (59°F) [RH = 65%]
Pressure (altimeter): 30.03 inches Hg (1017.0 mb)
Winds: variable direction winds at 2 MPH (2 knots; 1.0 m/s)
Visibility: 6 or more miles (10+ km)
Ceiling: ceiling and visibility are OK
Clouds: unknown
Weather: no significant weather observed at this time

METAR text: LBSF 300600Z VRB01KT CAVOK 21/15 Q1017 NOSIG
Conditions at: LBSF (SOFIA , BG) observed 0600 UTC 30 June 2022
Temperature: 21.0°C (70°F)
Dewpoint: 15.0°C (59°F) [RH = 69%]
Pressure (altimeter): 30.03 inches Hg (1017.0 mb)
Winds: variable direction winds at 1 MPH (1 knots; 0.5 m/s)
Visibility: 6 or more miles (10+ km)
Ceiling: ceiling and visibility are OK
Clouds: unknown
Weather: no significant weather observed at this time

Forecast for: LBSF (SOFIA , BG)
Text: TAF LBSF 300500Z 3006/0106 VRB04KT CAVOK
Forecast period: 0600 to 1000 UTC 30 June 2022
Forecast type: FROM: standard forecast or significant change
Winds: variable direction winds at 5 MPH (4 knots; 2.1 m/s)
Visibility: 6 or more miles (10+ km)
Ceiling: unknown
Clouds: missing
Weather: NSW  (no significant weather)
Text: BECMG 3010/3012 09010KT
Forecast period: 1000 to 1800 UTC 30 June 2022
Forecast type: BECOMING: Conditions expected to become as follows by 1200 UTC 30 June 2022
Winds: from the E (90 degrees) at 12 MPH (10 knots; 5.1 m/s)
Visibility: 6 or more miles (10+ km)
Ceiling: unknown
Clouds: missing
Weather: NSW  (no significant weather)
Text: BECMG 3018/3020 VRB04KT
Forecast period: 1800 UTC 30 June 2022 to 0600 UTC 01 July 2022
Forecast type: BECOMING: Conditions expected to become as follows by 2000 UTC 30 June 2022
Winds: variable direction winds at 5 MPH (4 knots; 2.1 m/s)
Visibility: 6 or more miles (10+ km)
Ceiling: unknown
Clouds: missing
Weather: NSW  (no significant weather)